Time,TemperatureF,DewpointF,PressureIn,WindDirection,WindDirectionDegrees,WindSpeedMPH,WindSpeedGustMPH,Humidity,HourlyPrecipIn,Conditions,Clouds,dailyrainin,SolarRadiationWatts/m^2,SoftwareType,DateUTC
2013-02-06 00:02:00,42.0,34.0,-100.00,ENE,69,4.0,9.0,73,0.00,,,0.00,0.000000,,2013-02-06 05:02:00,
2013-02-06 00:11:00,43.0,29.0,-100.00,East,80,6.0,14.0,57,0.00,,,0.00,0.000000,,2013-02-06 05:11:00,
2013-02-06 00:42:00,43.0,29.0,-100.00,East,80,6.0,14.0,57,0.00,,,0.00,0.000000,,2013-02-06 05:42:00,
2013-02-06 00:53:00,43.0,29.0,-100.00,East,80,6.0,14.0,57,0.00,,,0.00,0.000000,,2013-02-06 05:53:00,
2013-02-06 01:01:00,43.0,29.0,-100.00,East,80,6.0,14.0,57,0.00,,,0.00,0.000000,,2013-02-06 06:01:00,
2013-02-06 01:11:00,42.0,29.0,-100.00,East,79,6.0,11.0,60,0.00,,,0.00,0.000000,,2013-02-06 06:11:00,
2013-02-06 01:32:00,42.0,29.0,-100.00,East,79,6.0,11.0,60,0.00,,,0.00,0.000000,,2013-02-06 06:32:00,
2013-02-06 01:42:00,42.0,29.0,-100.00,East,79,6.0,11.0,60,0.00,,,0.00,0.000000,,2013-02-06 06:42:00,
2013-02-06 01:52:00,42.0,29.0,-100.00,East,79,6.0,11.0,60,0.00,,,0.00,0.000000,,2013-02-06 06:52:00,
2013-02-06 02:02:00,42.0,29.0,-100.00,East,79,6.0,11.0,60,0.00,,,0.00,0.000000,,2013-02-06 07:02:00,
2013-02-06 02:11:00,40.0,30.0,-100.00,East,82,4.0,12.0,66,0.00,,,0.00,0.000000,,2013-02-06 07:11:00,
2013-02-06 02:32:00,40.0,30.0,-100.00,East,82,4.0,12.0,66,0.00,,,0.00,0.000000,,2013-02-06 07:32:00,
2013-02-06 02:42:00,40.0,30.0,-100.00,East,82,4.0,12.0,66,0.00,,,0.00,0.000000,,2013-02-06 07:42:00,
2013-02-06 02:52:00,40.0,30.0,-100.00,East,82,4.0,12.0,66,0.00,,,0.00,0.000000,,2013-02-06 07:52:00,
2013-02-06 03:01:00,40.0,30.0,-100.00,East,82,4.0,12.0,66,0.00,,,0.00,0.000000,,2013-02-06 08:01:00,
2013-02-06 03:11:00,38.0,29.0,-100.00,East,81,2.0,14.0,70,0.00,,,0.00,0.000000,,2013-02-06 08:11:00,
2013-02-06 03:42:00,38.0,29.0,-100.00,East,81,2.0,14.0,70,0.00,,,0.00,0.000000,,2013-02-06 08:42:00,
2013-02-06 03:53:00,38.0,29.0,-100.00,East,81,2.0,14.0,70,0.00,,,0.00,0.000000,,2013-02-06 08:53:00,
2013-02-06 04:02:00,38.0,29.0,-100.00,East,81,2.0,14.0,70,0.00,,,0.00,0.000000,,2013-02-06 09:02:00,
2013-02-06 04:11:00,38.0,31.0,-100.00,ENE,76,4.0,13.0,75,0.00,,,0.00,0.000000,,2013-02-06 09:11:00,
2013-02-06 04:32:00,38.0,31.0,-100.00,ENE,76,4.0,13.0,75,0.00,,,0.00,0.000000,,2013-02-06 09:32:00,
2013-02-06 04:42:00,38.0,31.0,-100.00,ENE,76,4.0,13.0,75,0.00,,,0.00,0.000000,,2013-02-06 09:42:00,
2013-02-06 04:52:00,38.0,31.0,-100.00,ENE,76,4.0,13.0,75,0.00,,,0.00,0.000000,,2013-02-06 09:52:00,
2013-02-06 05:01:00,38.0,31.0,-100.00,ENE,76,4.0,13.0,75,0.00,,,0.00,0.000000,,2013-02-06 10:01:00,
2013-02-06 05:11:00,35.0,27.0,-100.00,East,89,2.0,8.0,73,0.00,,,0.00,0.000000,,2013-02-06 10:11:00,
2013-02-06 05:32:00,35.0,27.0,-100.00,East,89,2.0,8.0,73,0.00,,,0.00,0.000000,,2013-02-06 10:32:00,
2013-02-06 05:42:00,35.0,27.0,-100.00,East,89,2.0,8.0,73,0.00,,,0.00,0.000000,,2013-02-06 10:42:00,
2013-02-06 05:52:00,35.0,27.0,-100.00,East,89,2.0,8.0,73,0.00,,,0.00,0.000000,,2013-02-06 10:52:00,
2013-02-06 06:02:00,35.0,27.0,-100.00,East,89,2.0,8.0,73,0.00,,,0.00,0.000000,,2013-02-06 11:02:00,
2013-02-06 06:11:00,33.0,28.0,-100.00,East,88,1.0,5.0,81,0.00,,,0.00,0.000000,,2013-02-06 11:11:00,
2013-02-06 06:33:00,33.0,28.0,-100.00,East,88,1.0,5.0,81,0.00,,,0.00,0.000000,,2013-02-06 11:33:00,
2013-02-06 06:42:00,33.0,28.0,-100.00,East,88,1.0,5.0,81,0.00,,,0.00,0.000000,,2013-02-06 11:42:00,
2013-02-06 06:53:00,33.0,28.0,-100.00,East,88,1.0,5.0,81,0.00,,,0.00,0.000000,,2013-02-06 11:53:00,
2013-02-06 07:02:00,33.0,28.0,-100.00,East,88,1.0,5.0,81,0.00,,,0.00,0.000000,,2013-02-06 12:02:00,
2013-02-06 07:11:00,30.0,27.0,-100.00,East,79,1.0,3.0,89,0.00,,,0.00,0.000000,,2013-02-06 12:11:00,
2013-02-06 07:32:00,30.0,27.0,-100.00,East,79,1.0,3.0,89,0.00,,,0.00,0.000000,,2013-02-06 12:32:00,
2013-02-06 07:42:00,30.0,27.0,-100.00,East,79,1.0,3.0,89,0.00,,,0.00,0.000000,,2013-02-06 12:42:00,
2013-02-06 07:52:00,30.0,27.0,-100.00,East,79,1.0,3.0,89,0.00,,,0.00,0.000000,,2013-02-06 12:52:00,
2013-02-06 08:02:00,30.0,27.0,-100.00,East,79,1.0,3.0,89,0.00,,,0.00,0.000000,,2013-02-06 13:02:00,
2013-02-06 08:11:00,32.0,30.0,-100.00,NW,326,1.0,3.0,93,0.00,,,0.00,44.000000,,2013-02-06 13:11:00,
2013-02-06 08:32:00,32.0,30.0,-100.00,NW,326,1.0,3.0,93,0.00,,,0.00,44.000000,,2013-02-06 13:32:00,
2013-02-06 08:42:00,32.0,30.0,-100.00,NW,326,1.0,3.0,93,0.00,,,0.00,44.000000,,2013-02-06 13:42:00,
2013-02-06 08:52:00,32.0,30.0,-100.00,NW,326,1.0,3.0,93,0.00,,,0.00,44.000000,,2013-02-06 13:52:00,
2013-02-06 09:02:00,32.0,30.0,-100.00,NW,326,1.0,3.0,93,0.00,,,0.00,44.000000,,2013-02-06 14:02:00,
2013-02-06 09:11:00,39.0,32.0,-100.00,SE,134,3.0,6.0,77,0.00,,,0.00,266.000000,,2013-02-06 14:11:00,
2013-02-06 09:32:00,39.0,32.0,-100.00,SE,134,3.0,6.0,77,0.00,,,0.00,266.000000,,2013-02-06 14:32:00,
2013-02-06 10:11:00,41.0,31.0,-100.00,SE,129,4.0,6.0,66,0.00,,,0.00,489.000000,,2013-02-06 15:11:00,
2013-02-06 10:32:00,41.0,31.0,-100.00,SE,129,4.0,6.0,66,0.00,,,0.00,489.000000,,2013-02-06 15:32:00,
2013-02-06 11:01:00,41.0,31.0,-100.00,SE,129,4.0,6.0,66,0.00,,,0.00,489.000000,,2013-02-06 16:01:00,
2013-02-06 11:11:00,46.0,32.0,-100.00,ENE,68,2.0,6.0,58,0.00,,,0.00,681.000000,,2013-02-06 16:11:00,
2013-02-06 11:32:00,46.0,32.0,-100.00,ENE,68,2.0,6.0,58,0.00,,,0.00,681.000000,,2013-02-06 16:32:00,
2013-02-06 11:42:00,46.0,32.0,-100.00,ENE,68,2.0,6.0,58,0.00,,,0.00,681.000000,,2013-02-06 16:42:00,
2013-02-06 11:52:00,46.0,32.0,-100.00,ENE,68,2.0,6.0,58,0.00,,,0.00,681.000000,,2013-02-06 16:52:00,
2013-02-06 12:02:00,46.0,32.0,-100.00,ENE,68,2.0,6.0,58,0.00,,,0.00,681.000000,,2013-02-06 17:02:00,
2013-02-06 12:11:00,48.0,31.0,-100.00,ESE,102,3.0,6.0,51,0.00,,,0.00,789.000000,,2013-02-06 17:11:00,
2013-02-06 12:32:00,48.0,31.0,-100.00,ESE,102,3.0,6.0,51,0.00,,,0.00,789.000000,,2013-02-06 17:32:00,
2013-02-06 12:42:00,48.0,31.0,-100.00,ESE,102,3.0,6.0,51,0.00,,,0.00,789.000000,,2013-02-06 17:42:00,
2013-02-06 12:52:00,48.0,31.0,-100.00,ESE,102,3.0,6.0,51,0.00,,,0.00,789.000000,,2013-02-06 17:52:00,
2013-02-06 13:02:00,48.0,31.0,-100.00,ESE,102,3.0,6.0,51,0.00,,,0.00,789.000000,,2013-02-06 18:02:00,
2013-02-06 13:11:00,49.0,27.0,-100.00,NNW,342,3.0,7.0,43,0.00,,,0.00,820.000000,,2013-02-06 18:11:00,
2013-02-06 13:33:00,49.0,27.0,-100.00,NNW,342,3.0,7.0,43,0.00,,,0.00,820.000000,,2013-02-06 18:33:00,
2013-02-06 13:42:00,49.0,27.0,-100.00,NNW,342,3.0,7.0,43,0.00,,,0.00,820.000000,,2013-02-06 18:42:00,
2013-02-06 13:52:00,49.0,27.0,-100.00,NNW,342,3.0,7.0,43,0.00,,,0.00,820.000000,,2013-02-06 18:52:00,
2013-02-06 14:02:00,49.0,27.0,-100.00,NNW,342,3.0,7.0,43,0.00,,,0.00,820.000000,,2013-02-06 19:02:00,
2013-02-06 14:11:00,50.0,25.0,-100.00,NNE,33,4.0,9.0,38,0.00,,,0.00,795.000000,,2013-02-06 19:11:00,
2013-02-06 14:42:00,50.0,25.0,-100.00,NNE,33,4.0,9.0,38,0.00,,,0.00,795.000000,,2013-02-06 19:42:00,
2013-02-06 14:52:00,50.0,25.0,-100.00,NNE,33,4.0,9.0,38,0.00,,,0.00,795.000000,,2013-02-06 19:52:00,
2013-02-06 15:01:00,50.0,25.0,-100.00,NNE,33,4.0,9.0,38,0.00,,,0.00,795.000000,,2013-02-06 20:01:00,
2013-02-06 15:11:00,50.0,23.0,-100.00,NNE,15,3.0,10.0,35,0.00,,,0.00,642.000000,,2013-02-06 20:11:00,
2013-02-06 15:42:00,50.0,23.0,-100.00,NNE,15,3.0,10.0,35,0.00,,,0.00,642.000000,,2013-02-06 20:42:00,
2013-02-06 15:52:00,50.0,23.0,-100.00,NNE,15,3.0,10.0,35,0.00,,,0.00,642.000000,,2013-02-06 20:52:00,
2013-02-06 16:02:00,50.0,23.0,-100.00,NNE,15,3.0,10.0,35,0.00,,,0.00,642.000000,,2013-02-06 21:02:00,
2013-02-06 16:11:00,49.0,22.0,-100.00,NNE,28,3.0,9.0,34,0.00,,,0.00,420.000000,,2013-02-06 21:11:00,
2013-02-06 16:32:00,49.0,22.0,-100.00,NNE,28,3.0,9.0,34,0.00,,,0.00,420.000000,,2013-02-06 21:32:00,
2013-02-06 16:42:00,49.0,22.0,-100.00,NNE,28,3.0,9.0,34,0.00,,,0.00,420.000000,,2013-02-06 21:42:00,
2013-02-06 16:52:00,49.0,22.0,-100.00,NNE,28,3.0,9.0,34,0.00,,,0.00,420.000000,,2013-02-06 21:52:00,
2013-02-06 17:01:00,49.0,22.0,-100.00,NNE,28,3.0,9.0,34,0.00,,,0.00,420.000000,,2013-02-06 22:01:00,
2013-02-06 17:11:00,46.0,22.0,-100.00,NE,55,4.0,9.0,39,0.00,,,0.00,115.000000,,2013-02-06 22:11:00,
2013-02-06 17:42:00,46.0,22.0,-100.00,NE,55,4.0,9.0,39,0.00,,,0.00,115.000000,,2013-02-06 22:42:00,
2013-02-06 17:52:00,46.0,22.0,-100.00,NE,55,4.0,9.0,39,0.00,,,0.00,115.000000,,2013-02-06 22:52:00,
2013-02-06 18:01:00,46.0,22.0,-100.00,NE,55,4.0,9.0,39,0.00,,,0.00,115.000000,,2013-02-06 23:01:00,
2013-02-06 18:11:00,43.0,21.0,-100.00,WNW,293,1.0,6.0,41,0.00,,,0.00,13.000000,,2013-02-06 23:11:00,
2013-02-06 18:32:00,43.0,21.0,-100.00,WNW,293,1.0,6.0,41,0.00,,,0.00,13.000000,,2013-02-06 23:32:00,
2013-02-06 18:42:00,43.0,21.0,-100.00,WNW,293,1.0,6.0,41,0.00,,,0.00,13.000000,,2013-02-06 23:42:00,
2013-02-06 18:52:00,43.0,21.0,-100.00,WNW,293,1.0,6.0,41,0.00,,,0.00,13.000000,,2013-02-06 23:52:00,
2013-02-06 19:02:00,43.0,21.0,-100.00,WNW,293,1.0,6.0,41,0.00,,,0.00,13.000000,,2013-02-07 00:02:00,
2013-02-06 19:11:00,39.0,22.0,-100.00,NW,321,0.0,3.0,50,0.00,,,0.00,0.000000,,2013-02-07 00:11:00,
2013-02-06 19:32:00,39.0,22.0,-100.00,NW,321,0.0,3.0,50,0.00,,,0.00,0.000000,,2013-02-07 00:32:00,
2013-02-06 19:42:00,39.0,22.0,-100.00,NW,321,0.0,3.0,50,0.00,,,0.00,0.000000,,2013-02-07 00:42:00,
2013-02-06 19:52:00,39.0,22.0,-100.00,NW,321,0.0,3.0,50,0.00,,,0.00,0.000000,,2013-02-07 00:52:00,
2013-02-06 20:01:00,39.0,22.0,-100.00,NW,321,0.0,3.0,50,0.00,,,0.00,0.000000,,2013-02-07 01:01:00,
2013-02-06 20:11:00,34.0,21.0,-100.00,NW,304,0.0,2.0,58,0.00,,,0.00,0.000000,,2013-02-07 01:11:00,
2013-02-06 20:32:00,34.0,21.0,-100.00,NW,304,0.0,2.0,58,0.00,,,0.00,0.000000,,2013-02-07 01:32:00,
2013-02-06 21:02:00,34.0,21.0,-100.00,NW,304,0.0,2.0,58,0.00,,,0.00,0.000000,,2013-02-07 02:02:00,
2013-02-06 21:11:00,34.0,25.0,-100.00,NNW,340,2.0,3.0,68,0.00,,,0.00,0.000000,,2013-02-07 02:11:00,
2013-02-06 21:32:00,34.0,25.0,-100.00,NNW,340,2.0,3.0,68,0.00,,,0.00,0.000000,,2013-02-07 02:32:00,
2013-02-06 21:42:00,34.0,25.0,-100.00,NNW,340,2.0,3.0,68,0.00,,,0.00,0.000000,,2013-02-07 02:42:00,
2013-02-06 21:52:00,34.0,25.0,-100.00,NNW,340,2.0,3.0,68,0.00,,,0.00,0.000000,,2013-02-07 02:52:00,
2013-02-06 22:02:00,34.0,25.0,-100.00,NNW,340,2.0,3.0,68,0.00,,,0.00,0.000000,,2013-02-07 03:02:00,
2013-02-06 22:11:00,33.0,25.0,-100.00,NW,320,2.0,3.0,71,0.00,,,0.00,0.000000,,2013-02-07 03:11:00,
2013-02-06 22:32:00,33.0,25.0,-100.00,NW,320,2.0,3.0,71,0.00,,,0.00,0.000000,,2013-02-07 03:32:00,
2013-02-06 22:42:00,33.0,25.0,-100.00,NW,320,2.0,3.0,71,0.00,,,0.00,0.000000,,2013-02-07 03:42:00,
2013-02-06 22:52:00,33.0,25.0,-100.00,NW,320,2.0,3.0,71,0.00,,,0.00,0.000000,,2013-02-07 03:52:00,
2013-02-06 23:01:00,33.0,25.0,-100.00,NW,320,2.0,3.0,71,0.00,,,0.00,0.000000,,2013-02-07 04:01:00,
2013-02-06 23:11:00,31.0,22.0,-100.00,NW,305,2.0,4.0,70,0.00,,,0.00,0.000000,,2013-02-07 04:11:00,
2013-02-06 23:32:00,31.0,22.0,-100.00,NW,305,2.0,4.0,70,0.00,,,0.00,0.000000,,2013-02-07 04:32:00,
2013-02-06 23:42:00,31.0,22.0,-100.00,NW,305,2.0,4.0,70,0.00,,,0.00,0.000000,,2013-02-07 04:42:00,
2013-02-06 23:53:00,31.0,22.0,-100.00,NW,305,2.0,4.0,70,0.00,,,0.00,0.000000,,2013-02-07 04:53:00,